Flight Track Log - Related Links

Times and Time Zones

All times are in EDT time to prevent confusion due to time zone crossing. See the NKS439 flight status page for this flight to view local times or setup timezone preferences in your user account.

Time Position Orientation Groundspeed Altitude Reporting Facility
EDT Latitude Longitude Course Direction KTS MPH feet Rate Location/Type
Sat 11:51:26 PM 26.0770 -80.1340 90° East 164 189 600  Level FlightAware
Sat 11:51:57 PM 26.0790 -80.1080 85° East 168 193 1,700 1,696 Climbing FlightAware
Sat 11:52:12 PM 26.0810 -80.0940 81° East 195 224 1,900 882 Climbing FlightAware
Sat 11:52:31 PM 26.0830 -80.0740 84° East 222 255 2,200 1,050 Climbing FlightAware
Sat 11:52:52 PM 26.0860 -80.0470 83° East 259 298 2,600 1,902 Climbing FlightAware
Sat 11:53:12 PM 26.0890 -80.0200 83° East 272 313 3,500 3,164 Climbing FlightAware
Sat 11:53:47 PM 26.0850 -79.9720 95° East 271 312 5,500 3,333 Climbing FlightAware
Sat 11:53:57 PM 26.0770 -79.9610 129° Southeast 269 310 6,000 2,625 Climbing FlightAware
Sat 11:54:03 PM 26.0710 -79.9570 149° Southeast 275 316 6,200 3,000 Climbing FlightAware
Sat 11:54:07 PM 26.0660 -79.9540 152° Southeast 269 310 6,500 3,000 Climbing FlightAware
Sat 11:54:17 PM 26.0530 -79.9500 165° South 281 323 6,900 2,600 Climbing FlightAware
Sat 11:54:37 PM 26.0280 -79.9460 172° South 280 322 7,800 2,743 Climbing FlightAware
Sat 11:54:52 PM 26.0080 -79.9430 172° South 290 334 8,500 2,914 Climbing FlightAware
Sat 11:55:12 PM 25.9800 -79.9400 174° South 291 335 9,500 2,714 Climbing FlightAware
Sat 11:55:34 PM 25.9510 -79.9470 192° South 299 344 10,400 1,655 Climbing FlightAware
Sat 11:56:10 PM 25.9030 -79.9750 208° Southwest 335 386 11,100 1,417 Climbing FlightAware
Sat 11:56:46 PM 25.8520 -80.0050 208° Southwest 355 409 12,100 1,886 Climbing FlightAware
Sat 11:57:20 PM 25.8000 -80.0360 208° Southwest 363 418 13,300 1,886 Climbing FlightAware
Sat 11:57:56 PM 25.7470 -80.0670 208° Southwest 376 433 14,300 1,944 Climbing FlightAware
Sat 11:58:31 PM 25.6880 -80.0900 199° South 378 435 15,600 1,913 Climbing FlightAware
Sat 11:59:05 PM 25.6340 -80.1090 198° South 385 443 16,500 1,739 Climbing FlightAware
Sat 11:59:40 PM 25.5730 -80.1320 199° South 389 448 17,600 2,028 Climbing FlightAware
Sun 12:00:16 AM 25.5090 -80.1550 198° South 389 448 18,900 1,800 Climbing FlightAware
Sun 12:00:50 AM 25.4530 -80.1750 198° South 396 456 19,700 1,606 Climbing FlightAware
Sun 12:01:27 AM 25.3880 -80.1990 198° South 390 449 20,800 1,481 Climbing FlightAware
Sun 12:02:07 AM 25.3180 -80.2240 198° South 408 470 21,600 1,120 Climbing FlightAware
Sun 12:02:42 AM 25.2550 -80.2470 198° South 408 470 22,200 1,280 Climbing FlightAware
Sun 12:03:22 AM 25.1810 -80.2740 198° South 410 472 23,200 1,360 Climbing FlightAware
Sun 12:03:57 AM 25.1140 -80.2980 198° South 423 487 23,900 1,167 Climbing FlightAware
Sun 12:04:34 AM 25.0480 -80.3220 198° South 427 491 24,600 1,169 Climbing FlightAware
Sun 12:05:14 AM 24.9720 -80.3500 198° South 423 487 25,400 1,200 Climbing FlightAware
Sun 12:05:49 AM 24.9050 -80.3740 198° South 426 490 26,100 943 Climbing FlightAware
Sun 12:06:24 AM 24.8350 -80.3990 198° South 443 510 26,500 845 Climbing FlightAware
Sun 12:07:00 AM 24.7680 -80.4230 198° South 439 505 27,100 930 Climbing FlightAware
Sun 12:07:35 AM 24.6970 -80.4480 198° South 443 510 27,600 880 Climbing FlightAware
Sun 12:08:15 AM 24.6170 -80.4770 198° South 455 524 28,200 880 Climbing FlightAware
Sun 12:08:50 AM 24.5470 -80.5020 198° South 459 528 28,700 857 Climbing FlightAware
Sun 12:09:25 AM 24.4740 -80.5290 199° South 458 527 29,200 771 Climbing FlightAware
Sun 12:10:00 AM 24.4100 -80.5510 197° South 460 529 29,600 975 Climbing FlightAware
Sun 12:10:45 AM 24.3100 -80.5890 199° South 469 540 30,500 1,050 Climbing FlightAware
Sun 12:11:20 AM 24.2600 -80.6120 203° Southwest 460 529 31,000 1,114 Climbing FlightAware
Sun 12:11:55 AM 24.1700 -80.6540 203° Southwest 458 527 31,800 1,280 Climbing FlightAware
Sun 12:12:35 AM 24.0900 -80.6890 202° Southwest 453 521 32,600 1,040 Climbing FlightAware
Sun 12:13:10 AM 24.0200 -80.7200 202° Southwest 457 526 33,100 880 Climbing FlightAware
Sun 12:13:50 AM 23.9400 -80.7560 202° Southwest 465 535 33,700 857 Climbing FlightAware
Sun 12:14:20 AM 23.8790 -80.7830 202° Southwest 466 536 34,100 831 Climbing FlightAware
Sun 12:14:55 AM 23.8120 -80.8130 202° Southwest 467 537 34,600 771 Climbing FlightAware
Sun 12:15:30 AM 23.7380 -80.8460 202° Southwest 456 525 35,000 343 Climbing FlightAware
Sun 12:16:05 AM 23.6680 -80.8770 202° Southwest 455 524 35,000  Level FlightAware
Sun 12:16:40 AM 23.6090 -80.9030 202° Southwest 466 536 35,000  Level FlightAware
Sun 12:17:20 AM 23.5190 -80.9430 202° Southwest 465 535 35,000  Level FlightAware
Sun 12:18:17 AM 23.4240 -80.9840 202° Southwest 457 526 35,000  Level FlightAware
Sun 12:18:53 AM 23.3640 -81.0110 202° Southwest 457 526 35,000  Level FlightAware
Sun 12:19:31 AM 23.2690 -81.0520 202° Southwest 452 520 35,000  Level FlightAware
Sun 12:20:09 AM 23.2070 -81.0800 203° Southwest 452 520 35,000  Level FlightAware
Sun 12:20:45 AM 23.1470 -81.1060 202° Southwest 452 520 35,000  Level FlightAware
Sun 12:23:00 AM 22.8932 -81.1740 194° South  Level FlightAware
Sun 12:23:14 AM 22.8230 -81.2480 194° South 35,000  Level FlightAware
Sun 12:25:00 AM 22.6218 -81.2925 192° South  Level FlightAware
Sun 12:26:00 AM 22.5080 -81.3177 192° South  Level FlightAware
Sun 12:26:34 AM 22.4180 -81.4240 192° South 35,000  Level FlightAware
Sun 12:27:20 AM 22.3310 -81.4620 202° Southwest 469 540 35,000  Level FlightAware
Sun 12:27:57 AM 22.2680 -81.4900 202° Southwest 469 540 35,000  Level FlightAware
Sun 12:28:33 AM 22.2060 -81.5170 202° Southwest 469 540 35,000  Level FlightAware
Sun 12:29:09 AM 22.1450 -81.5440 202° Southwest 469 540 35,000  Level FlightAware
Sun 12:29:45 AM 22.0830 -81.5700 201° Southwest 469 540 35,000  Level FlightAware
Sun 12:30:21 AM 22.0220 -81.5970 202° Southwest 469 540 35,000  Level FlightAware
Sun 12:30:57 AM 21.9600 -81.6240 202° Southwest 469 540 35,000  Level FlightAware
Sun 12:31:33 AM 21.8980 -81.6510 202° Southwest 469 540 35,000  Level FlightAware
Sun 12:32:09 AM 21.8370 -81.6780 202° Southwest 469 540 35,000  Level FlightAware
Sun 12:32:45 AM 21.7750 -81.7040 201° Southwest 469 540 35,000  Level FlightAware
Sun 12:33:22 AM 21.7120 -81.7320 202° Southwest 469 540 35,000  Level FlightAware
Sun 12:33:58 AM 21.6510 -81.7590 202° Southwest 469 540 35,000  Level FlightAware
Sun 12:34:35 AM 21.5870 -81.7860 201° Southwest 469 540 35,000  Level FlightAware
Sun 12:35:11 AM 21.5260 -81.8130 202° Southwest 469 540 35,000  Level FlightAware
Sun 12:35:47 AM 21.4640 -81.8400 202° Southwest 469 540 35,000  Level FlightAware
Sun 12:36:23 AM 21.4030 -81.8660 202° Southwest 469 540 35,000  Level FlightAware
Sun 12:39:00 AM 21.1266 -82.0019 205° Southwest  Level Estimated
Sun 12:40:00 AM 21.0209 -82.0537 205° Southwest  Level Estimated
Sun 12:41:00 AM 20.9152 -82.1054 205° Southwest  Level Estimated
Sun 12:42:00 AM 20.8095 -82.1570 205° Southwest  Level Estimated
Sun 12:43:00 AM 20.7038 -82.2086 205° Southwest  Level Estimated
Sun 12:44:00 AM 20.5980 -82.2601 205° Southwest  Level Estimated
Sun 12:45:00 AM 20.4923 -82.3115 204° Southwest  Level Estimated
Sun 12:46:00 AM 20.3865 -82.3629 204° Southwest  Level Estimated
Sun 12:47:00 AM 20.2807 -82.4142 204° Southwest  Level Estimated
Sun 12:48:00 AM 20.1749 -82.4654 204° Southwest  Level Estimated
Sun 12:49:00 AM 20.0691 -82.5165 204° Southwest  Level Estimated
Sun 12:50:00 AM 19.9632 -82.5676 204° Southwest  Level Estimated
Sun 12:51:00 AM 19.8574 -82.6186 204° Southwest  Level Estimated
Sun 12:52:00 AM 19.7515 -82.6696 204° Southwest  Level Estimated
Sun 12:53:00 AM 19.6457 -82.7205 204° Southwest  Level Estimated
Sun 12:54:00 AM 19.5398 -82.7713 204° Southwest  Level Estimated
Sun 12:55:00 AM 19.4339 -82.8220 204° Southwest  Level Estimated
Sun 12:56:00 AM 19.3280 -82.8727 204° Southwest  Level Estimated
Sun 12:57:00 AM 19.2220 -82.9233 204° Southwest  Level Estimated
Sun 12:58:00 AM 19.1161 -82.9738 204° Southwest  Level Estimated
Sun 12:59:00 AM 19.0101 -83.0243 204° Southwest  Level Estimated
Sun 01:00:00 AM 18.9042 -83.0748 204° Southwest  Level Estimated
Sun 01:01:00 AM 18.7982 -83.1251 204° Southwest  Level Estimated
Sun 01:02:00 AM 18.6922 -83.1754 204° Southwest  Level Estimated
Sun 01:03:00 AM 18.5862 -83.2256 204° Southwest  Level Estimated
Sun 01:04:00 AM 18.4802 -83.2758 204° Southwest  Level Estimated
Sun 01:05:00 AM 18.3741 -83.3259 204° Southwest  Level Estimated
Sun 01:06:00 AM 18.2681 -83.3759 204° Southwest  Level Estimated
Sun 01:07:00 AM 18.1620 -83.4259 204° Southwest  Level Estimated
Sun 01:08:00 AM 18.0559 -83.4758 204° Southwest  Level Estimated
Sun 01:09:00 AM 17.9498 -83.5257 204° Southwest  Level Estimated
Sun 01:10:00 AM 17.8437 -83.5755 204° Southwest  Level Estimated
Sun 01:11:00 AM 17.7376 -83.6252 204° Southwest  Level Estimated
Sun 01:12:00 AM 17.6315 -83.6749 204° Southwest  Level Estimated
Sun 01:13:00 AM 17.5253 -83.7245 204° Southwest  Level Estimated
Sun 01:14:00 AM 17.4192 -83.7741 204° Southwest  Level Estimated
Sun 01:15:00 AM 17.3130 -83.8236 204° Southwest  Level Estimated
Sun 01:16:00 AM 17.2069 -83.8730 204° Southwest  Level Estimated
Sun 01:17:00 AM 17.1007 -83.9224 204° Southwest  Level Estimated
Sun 01:18:00 AM 16.9945 -83.9718 204° Southwest  Level Estimated
Sun 01:19:00 AM 16.8883 -84.0210 204° Southwest  Level Estimated
Sun 01:20:00 AM 16.7820 -84.0703 204° Southwest  Level Estimated
Sun 01:21:00 AM 16.6758 -84.1194 204° Southwest  Level Estimated
Sun 01:22:00 AM 16.5695 -84.1685 204° Southwest  Level Estimated
Sun 01:23:00 AM 16.4633 -84.2176 204° Southwest  Level Estimated
Sun 01:24:00 AM 16.3570 -84.2666 204° Southwest  Level Estimated
Sun 01:25:00 AM 16.2507 -84.3156 204° Southwest  Level Estimated
Sun 01:26:00 AM 16.1444 -84.3645 204° Southwest  Level Estimated
Sun 01:27:00 AM 16.0381 -84.4133 204° Southwest  Level Estimated
Sun 01:28:00 AM 15.9318 -84.4621 204° Southwest  Level Estimated
Sun 01:29:00 AM 15.8255 -84.5109 204° Southwest  Level Estimated
Sun 01:30:00 AM 15.7191 -84.5595 204° Southwest  Level Estimated
Sun 01:31:00 AM 15.6128 -84.6082 204° Southwest  Level Estimated
Sun 01:32:00 AM 15.5064 -84.6568 204° Southwest  Level Estimated
Sun 01:33:00 AM 15.4001 -84.7053 204° Southwest  Level Estimated
Sun 01:34:00 AM 15.2937 -84.7538 204° Southwest  Level Estimated
Sun 01:35:00 AM 15.1873 -84.8023 204° Southwest  Level Estimated
Sun 01:36:00 AM 15.0809 -84.8506 204° Southwest  Level Estimated
Sun 01:37:00 AM 14.9745 -84.8990 204° Southwest  Level Estimated
Sun 01:38:00 AM 14.8681 -84.9473 204° Southwest  Level Estimated
Sun 01:39:00 AM 14.7616 -84.9956 204° Southwest  Level Estimated
Sun 01:40:00 AM 14.6552 -85.0437 204° Southwest  Level Estimated
Sun 01:41:00 AM 14.5487 -85.0919 204° Southwest  Level Estimated
Sun 01:42:00 AM 14.4423 -85.1400 204° Southwest  Level Estimated
Sun 01:43:00 AM 14.3358 -85.1881 204° Southwest  Level Estimated
Sun 01:44:00 AM 14.2293 -85.2361 204° Southwest  Level Estimated
Sun 01:45:00 AM 14.1229 -85.2841 204° Southwest  Level Estimated
Sun 01:46:00 AM 14.0163 -85.3320 204° Southwest  Level Estimated
Sun 01:47:00 AM 13.9098 -85.3799 204° Southwest  Level Estimated
Sun 01:48:00 AM 13.8033 -85.4277 204° Southwest  Level Estimated
Sun 01:49:00 AM 13.6968 -85.4755 204° Southwest  Level Estimated
Sun 01:50:00 AM 13.5903 -85.5233 204° Southwest  Level Estimated
Sun 01:51:00 AM 13.4837 -85.5710 204° Southwest  Level Estimated
Sun 01:52:00 AM 13.3772 -85.6187 204° Southwest  Level Estimated
Sun 01:53:00 AM 13.2706 -85.6663 204° Southwest  Level Estimated
Sun 01:54:00 AM 13.1640 -85.7139 203° Southwest  Level Estimated
Sun 01:55:00 AM 13.0575 -85.7614 203° Southwest  Level Estimated
Sun 01:56:00 AM 12.9509 -85.8089 203° Southwest  Level Estimated
Sun 01:57:00 AM 12.8443 -85.8564 203° Southwest  Level Estimated
Sun 01:58:00 AM 12.7376 -85.9038 203° Southwest  Level Estimated
Sun 01:59:00 AM 12.6310 -85.9512 203° Southwest  Level Estimated
Sun 02:00:00 AM 12.5244 -85.9985 203° Southwest  Level Estimated
Sun 02:01:00 AM 12.4178 -86.0458 203° Southwest  Level Estimated
Sun 02:02:00 AM 12.3111 -86.0931 203° Southwest  Level Estimated
Sun 02:03:00 AM 12.2045 -86.1403 203° Southwest  Level Estimated
Sun 02:04:00 AM 12.1415 -86.1682 203° Southwest  Level Estimated
Sun 02:05:00 AM 12.1415 -86.1682 26° Northeast  Level Estimated
Sun 02:06:00 AM 12.1415 -86.1682 26° Northeast  Level Estimated
Sun 02:07:00 AM 12.1415 -86.1682 26° Northeast  Level Estimated
Sun 02:08:00 AM 12.1415 -86.1682 26° Northeast  Level Estimated
Sun 02:09:00 AM 12.1415 -86.1682 26° Northeast  Level Estimated
Sun 02:10:00 AM 12.1415 -86.1682 26° Northeast  Level Estimated
Sun 02:11:00 AM 12.1415 -86.1682 26° Northeast  Level Estimated
Sun 02:12:00 AM 12.1415 -86.1682 26° Northeast  Level Estimated
Sun 02:13:00 AM 12.1415 -86.1682 26° Northeast  Level Estimated
Sun 02:14:00 AM 12.1415 -86.1682 26° Northeast  Level Estimated
Sun 02:15:00 AM 12.1415 -86.1682 26° Northeast  Level Estimated
Sun 02:16:00 AM 12.1415 -86.1682 26° Northeast  Level Estimated
Sun 02:17:00 AM 12.1415 -86.1682 26° Northeast  Level Estimated
Sun 02:18:00 AM 12.1415 -86.1682 26° Northeast  Level Estimated

Login

Don't have an account? Register now (free) for customized features, flight alerts, and more!